Time;durP1;ratioP1;P1;durP2;ratioP2;P2;SDS_P1;SDS_P2;PMS_P1;PMS_P2;Temp;Humidity;BMP_temperature;BMP_pressure;BME280_temperature;BME280_humidity;BME280_pressure;Samples;Min_cycle;Max_cycle;Signal;HPM_P1;HPM_P2
2021/09/20 00:01:58;;;;;;;8.57;6.22;;;;;;;10.68;100.00;101746.78;10498652;28;20044;-57
2021/09/20 00:07:01;;;;;;;8.13;6.78;;;;;;;10.80;100.00;101751.47;10498130;28;20045;-57
2021/09/20 00:12:03;;;;;;;8.40;6.60;;;;;;;10.85;100.00;101749.50;10498333;28;20052;-58
2021/09/20 00:17:06;;;;;;;9.32;6.65;;;;;;;10.71;100.00;101744.88;10498067;28;20519;-59
2021/09/20 00:22:09;;;;;;;8.07;7.28;;;;;;;10.81;100.00;101754.94;10497986;28;20396;-59
2021/09/20 00:27:12;;;;;;;9.57;6.90;;;;;;;10.58;100.00;101757.63;10498372;28;20062;-58
2021/09/20 00:32:16;;;;;;;8.07;7.13;;;;;;;10.51;100.00;101761.41;10497865;28;20427;-58
2021/09/20 00:37:19;;;;;;;9.50;7.65;;;;;;;10.60;100.00;101762.78;10497686;28;20059;-58
2021/09/20 00:42:21;;;;;;;9.35;7.15;;;;;;;10.71;100.00;101763.19;10498285;28;20049;-57
2021/09/20 00:47:23;;;;;;;9.93;7.78;;;;;;;10.39;100.00;101770.63;10497750;28;20074;-57
2021/09/20 00:52:26;;;;;;;8.50;7.55;;;;;;;10.54;100.00;101765.66;10496447;28;20049;-58
2021/09/20 00:57:28;;;;;;;8.70;7.25;;;;;;;10.30;100.00;101768.34;10497913;28;20052;-59
2021/09/20 01:02:30;;;;;;;12.82;8.52;;;;;;;10.23;100.00;101765.13;10497251;28;20048;-57
2021/09/20 01:07:33;;;;;;;10.27;8.32;;;;;;;9.96;100.00;101758.41;10497125;28;20055;-57
2021/09/20 01:12:37;;;;;;;9.02;8.00;;;;;;;10.13;100.00;101752.50;10497120;28;20468;-57
2021/09/20 01:17:39;;;;;;;11.00;8.50;;;;;;;10.00;100.00;101753.00;10498573;28;20508;-55
2021/09/20 01:22:42;;;;;;;10.65;8.65;;;;;;;10.15;100.00;101748.88;10504480;28;20048;-59
2021/09/20 01:27:45;;;;;;;13.32;7.95;;;;;;;10.15;100.00;101753.28;10503789;28;20061;-58
2021/09/20 01:32:47;;;;;;;11.00;8.52;;;;;;;9.82;100.00;101761.56;10504438;28;20048;-57
2021/09/20 01:37:50;;;;;;;13.70;9.05;;;;;;;9.93;100.00;101767.19;10504160;28;20048;-56
2021/09/20 01:42:53;;;;;;;16.25;9.52;;;;;;;9.69;100.00;101753.31;10504047;28;20135;-57
2021/09/20 01:47:55;;;;;;;13.27;8.70;;;;;;;9.64;100.00;101753.50;10503625;28;20048;-58
2021/09/20 01:52:58;;;;;;;12.45;9.00;;;;;;;9.54;100.00;101759.13;10504160;28;20059;-58
2021/09/20 01:58:00;;;;;;;13.48;9.00;;;;;;;9.57;100.00;101759.03;10503838;28;20484;-58
2021/09/20 02:03:02;;;;;;;13.95;9.00;;;;;;;9.57;100.00;101759.03;10503116;28;20412;-58
2021/09/20 02:08:05;;;;;;;12.07;9.57;;;;;;;9.61;100.00;101763.22;10503077;28;20048;-58
2021/09/20 02:13:08;;;;;;;12.05;9.10;;;;;;;9.35;100.00;101765.06;10502930;28;20058;-58
2021/09/20 02:18:10;;;;;;;11.88;8.48;;;;;;;9.46;100.00;101765.50;10502666;28;20052;-58
2021/09/20 02:23:14;;;;;;;11.50;9.15;;;;;;;9.53;100.00;101770.50;10502439;28;20059;-57
2021/09/20 02:28:16;;;;;;;11.02;9.13;;;;;;;9.33;100.00;101777.31;10501412;28;20401;-57
2021/09/20 02:33:18;;;;;;;12.07;9.30;;;;;;;9.40;100.00;101773.56;10502573;28;20063;-55
2021/09/20 02:38:21;;;;;;;11.85;9.07;;;;;;;9.29;100.00;101792.25;10501688;28;20052;-58
2021/09/20 02:43:24;;;;;;;10.88;9.27;;;;;;;9.15;100.00;101785.84;10501836;28;20048;-57
2021/09/20 02:48:26;;;;;;;10.23;8.98;;;;;;;9.18;100.00;101785.69;10501181;28;20063;-57
2021/09/20 02:53:28;;;;;;;11.85;8.98;;;;;;;9.10;100.00;101791.22;10501961;28;20055;-57
2021/09/20 02:58:31;;;;;;;14.27;9.25;;;;;;;9.04;100.00;101794.88;10501239;28;20048;-57
2021/09/20 03:03:33;;;;;;;14.00;9.35;;;;;;;8.99;100.00;101794.19;10500763;28;20048;-57
2021/09/20 03:08:36;;;;;;;12.50;8.82;;;;;;;9.08;100.00;101799.09;10500836;28;20124;-57
2021/09/20 03:13:38;;;;;;;14.15;9.27;;;;;;;8.98;100.00;101808.16;10500173;28;20052;-56
2021/09/20 03:18:40;;;;;;;12.68;8.73;;;;;;;9.07;100.00;101802.59;10500269;28;20068;-58
2021/09/20 03:23:43;;;;;;;11.70;9.48;;;;;;;8.89;100.00;101813.69;10499782;28;20052;-56
2021/09/20 03:28:46;;;;;;;12.57;8.38;;;;;;;8.96;100.00;101817.81;10499727;28;20063;-54
2021/09/20 03:33:53;;;;;;;9.70;8.20;;;;;;;9.04;100.00;101813.16;10499687;28;20052;-57
2021/09/20 03:38:55;;;;;;;10.82;8.40;;;;;;;8.84;100.00;101816.47;10499239;28;20056;-55
2021/09/20 03:43:58;;;;;;;11.10;8.65;;;;;;;8.68;100.00;101817.91;10498887;28;20056;-57
2021/09/20 03:49:00;;;;;;;14.02;8.90;;;;;;;8.72;100.00;101822.09;10499054;28;20055;-57
2021/09/20 03:54:03;;;;;;;12.18;8.18;;;;;;;8.68;100.00;101818.75;10497860;28;20233;-57
2021/09/20 03:59:05;;;;;;;9.95;8.60;;;;;;;8.58;100.00;101825.16;10498761;28;20048;-58
2021/09/20 04:04:08;;;;;;;11.05;7.95;;;;;;;8.66;100.00;101827.53;10497481;28;20040;-55
2021/09/20 04:09:10;;;;;;;9.82;8.23;;;;;;;8.60;100.00;101825.97;10498433;28;20048;-57
2021/09/20 04:14:13;;;;;;;13.55;9.23;;;;;;;8.50;100.00;101829.78;10498336;28;20056;-54
2021/09/20 04:19:15;;;;;;;11.15;8.38;;;;;;;8.63;100.00;101827.63;10498348;28;20067;-58
2021/09/20 04:24:17;;;;;;;11.70;9.10;;;;;;;8.46;100.00;101839.47;10498097;28;20076;-55
2021/09/20 04:29:20;;;;;;;11.68;9.35;;;;;;;8.46;100.00;101838.63;10498106;28;20489;-58
2021/09/20 04:34:23;;;;;;;13.73;9.27;;;;;;;8.31;100.00;101840.78;10498242;28;20055;-57
2021/09/20 04:39:25;;;;;;;13.65;9.65;;;;;;;8.61;100.00;101838.13;10497844;28;20119;-54
2021/09/20 04:44:28;;;;;;;11.75;9.10;;;;;;;8.34;100.00;101839.84;10497735;28;20048;-53
2021/09/20 04:49:30;;;;;;;15.25;10.70;;;;;;;8.42;100.00;101845.63;10497631;28;20369;-56
2021/09/20 04:54:33;;;;;;;17.95;11.20;;;;;;;8.44;100.00;101856.06;10504844;28;20055;-55
2021/09/20 04:59:35;;;;;;;17.42;11.95;;;;;;;8.24;100.00;101856.66;10504619;28;20044;-55
2021/09/20 05:04:37;;;;;;;19.02;13.20;;;;;;;8.29;100.00;101866.06;10505441;28;20408;-54
2021/09/20 05:09:40;;;;;;;19.05;12.88;;;;;;;8.41;100.00;101867.44;10505259;28;20067;-55
2021/09/20 05:14:42;;;;;;;18.15;12.60;;;;;;;8.42;100.00;101858.69;10505180;28;20048;-57
2021/09/20 05:19:44;;;;;;;16.45;12.60;;;;;;;8.46;100.00;101865.56;10504942;28;20053;-57
2021/09/20 05:24:47;;;;;;;13.15;10.88;;;;;;;8.40;100.00;101867.47;10504859;28;20051;-56
2021/09/20 05:29:49;;;;;;;18.08;12.60;;;;;;;8.52;100.00;101873.22;10505392;28;20048;-56
2021/09/20 05:34:51;;;;;;;19.08;15.25;;;;;;;8.45;100.00;101878.66;10504461;28;20049;-56
2021/09/20 05:39:54;;;;;;;19.73;14.32;;;;;;;8.48;100.00;101881.19;10504055;28;20499;-55
2021/09/20 05:44:56;;;;;;;17.52;13.65;;;;;;;8.74;100.00;101877.72;10504042;28;20059;-55
2021/09/20 05:49:58;;;;;;;23.30;14.45;;;;;;;8.54;100.00;101884.44;10503653;28;20052;-55
2021/09/20 05:55:01;;;;;;;21.15;14.25;;;;;;;8.83;100.00;101895.72;10503653;28;20407;-56
2021/09/20 06:00:05;;;;;;;19.05;15.27;;;;;;;8.99;100.00;101896.06;10503400;28;20131;-56
2021/09/20 06:05:08;;;;;;;20.70;15.32;;;;;;;9.07;100.00;101890.59;10502991;28;20071;-56
2021/09/20 06:10:12;;;;;;;21.10;15.63;;;;;;;9.24;100.00;101906.53;10502924;28;20071;-57
2021/09/20 06:15:15;;;;;;;18.60;13.88;;;;;;;9.36;100.00;101904.41;10503151;28;20067;-57
2021/09/20 06:20:17;;;;;;;18.70;15.68;;;;;;;9.51;100.00;101908.25;10502750;28;20048;-56
2021/09/20 06:25:20;;;;;;;20.60;15.35;;;;;;;9.73;100.00;101906.56;10502103;28;20049;-57
2021/09/20 06:30:23;;;;;;;20.70;16.33;;;;;;;9.83;100.00;101915.81;10502537;28;20052;-53
2021/09/20 06:35:25;;;;;;;18.73;13.50;;;;;;;10.00;100.00;101923.03;10501907;28;20392;-55
2021/09/20 06:40:28;;;;;;;20.55;14.48;;;;;;;10.26;100.00;101926.44;10501534;28;20499;-57
2021/09/20 06:45:31;;;;;;;21.17;14.82;;;;;;;10.28;100.00;101923.78;10501739;28;20053;-56
2021/09/20 06:50:33;;;;;;;19.90;14.43;;;;;;;10.31;100.00;101914.03;10501006;28;20056;-56
2021/09/20 06:55:36;;;;;;;16.98;14.48;;;;;;;10.56;100.00;101919.19;10501573;28;20045;-58
2021/09/20 07:00:38;;;;;;;21.35;14.43;;;;;;;10.50;100.00;101921.19;10499465;28;20047;-54
2021/09/20 07:05:42;;;;;;;14.73;13.13;;;;;;;10.89;100.00;101926.63;10501487;28;20066;-57
2021/09/20 07:10:44;;;;;;;20.17;14.10;;;;;;;11.14;100.00;101928.22;10500557;28;20052;-54
2021/09/20 07:15:46;;;;;;;14.43;11.68;;;;;;;11.15;98.44;101925.53;10500169;28;20054;-57
2021/09/20 07:20:49;;;;;;;15.40;12.05;;;;;;;11.43;96.94;101927.00;10499920;28;20051;-56
2021/09/20 07:25:52;;;;;;;14.73;11.32;;;;;;;11.55;94.40;101920.38;10499763;28;20075;-57
2021/09/20 07:30:54;;;;;;;11.77;10.23;;;;;;;11.58;90.41;101928.09;10499619;28;20135;-55
2021/09/20 07:35:57;;;;;;;11.88;10.57;;;;;;;11.37;90.65;101937.75;10499710;28;20059;-56
2021/09/20 07:40:59;;;;;;;12.20;10.80;;;;;;;11.38;91.91;101949.06;10499943;28;20053;-57
2021/09/20 07:46:05;;;;;;;14.05;12.05;;;;;;;11.32;90.96;101952.81;10498931;28;20086;-54
2021/09/20 07:51:08;;;;;;;14.35;12.45;;;;;;;11.49;92.25;101955.56;10498034;28;20048;-58
2021/09/20 07:56:11;;;;;;;13.75;11.13;;;;;;;12.12;89.05;101962.50;10499119;28;20052;-57
2021/09/20 08:01:13;;;;;;;16.05;12.93;;;;;;;11.84;89.53;101965.47;10498723;28;20056;-55
2021/09/20 08:06:17;;;;;;;17.35;12.77;;;;;;;12.45;89.47;101972.34;10498463;28;20483;-57
2021/09/20 08:11:19;;;;;;;17.52;13.05;;;;;;;12.92;86.36;101978.91;10498918;28;20064;-57
2021/09/20 08:16:21;;;;;;;16.20;12.00;;;;;;;13.33;83.43;101986.56;10498477;28;20048;-56
2021/09/20 08:21:24;;;;;;;13.80;11.65;;;;;;;14.55;78.53;101982.84;10497767;28;20397;-56
2021/09/20 08:26:26;;;;;;;12.50;10.55;;;;;;;15.21;74.76;101981.75;10497777;28;20048;-57
2021/09/20 08:31:30;;;;;;;15.65;11.50;;;;;;;15.26;69.20;101986.75;10496894;28;20050;-57
2021/09/20 08:36:33;;;;;;;11.82;10.65;;;;;;;15.05;69.75;101984.44;10497901;28;20462;-56
2021/09/20 08:41:37;;;;;;;12.90;10.40;;;;;;;15.34;68.09;101984.53;10497875;28;20124;-58
2021/09/20 08:46:40;;;;;;;14.75;9.98;;;;;;;16.06;63.45;101985.50;10497368;28;20056;-55
2021/09/20 08:51:42;;;;;;;11.25;10.02;;;;;;;16.46;61.12;101992.75;10496102;28;20056;-55
2021/09/20 08:56:45;;;;;;;11.70;10.52;;;;;;;17.81;62.96;101993.56;10497685;28;20044;-57
2021/09/20 09:01:50;;;;;;;11.50;8.93;;;;;;;17.75;58.95;102000.13;10497176;28;20128;-58
2021/09/20 09:06:57;;;;;;;10.80;7.72;;;;;;;18.58;57.55;101998.78;10497881;28;20056;-55
2021/09/20 09:12:21;;;;;;;9.23;8.23;;;;;;;19.36;54.71;102008.06;10497257;28;20056;-58
2021/09/20 09:17:31;;;;;;;10.80;8.95;;;;;;;18.23;54.99;102017.19;10497132;28;20047;-56
2021/09/20 09:22:55;;;;;;;9.45;8.55;;;;;;;19.59;54.18;102005.50;10496789;28;20088;-57
2021/09/20 09:28:02;;;;;;;9.48;8.15;;;;;;;19.73;51.97;102020.38;10496729;28;20056;-58
2021/09/20 09:33:15;;;;;;;9.75;8.05;;;;;;;19.24;51.29;102017.81;10496807;28;20131;-56
2021/09/20 09:38:18;;;;;;;15.88;7.35;;;;;;;20.18;51.22;102017.78;10498103;28;20041;-56
2021/09/20 09:43:32;;;;;;;10.80;7.57;;;;;;;18.59;53.57;102029.63;10504053;28;20055;-58
2021/09/20 09:48:36;;;;;;;9.05;8.15;;;;;;;20.50;47.51;102025.00;10504529;28;20048;-58
2021/09/20 09:53:40;;;;;;;8.43;6.53;;;;;;;21.33;46.97;102031.53;10503692;28;20045;-58
2021/09/20 09:58:58;;;;;;;8.43;7.00;;;;;;;19.42;46.63;102034.19;10503322;28;20048;-58
2021/09/20 10:04:05;;;;;;;7.88;6.45;;;;;;;20.37;47.58;102028.63;10503189;28;20045;-58
2021/09/20 10:09:13;;;;;;;8.38;6.97;;;;;;;21.94;44.16;102025.53;10503316;28;20417;-58
2021/09/20 10:14:17;;;;;;;9.65;6.28;;;;;;;21.70;44.66;102033.78;10503300;28;20052;-58
2021/09/20 10:19:20;;;;;;;6.85;5.63;;;;;;;20.97;42.53;102026.50;10503179;28;20045;-58
2021/09/20 10:24:23;;;;;;;6.38;5.20;;;;;;;21.10;46.02;102029.00;10502153;28;20497;-57
2021/09/20 10:29:26;;;;;;;7.38;4.93;;;;;;;20.41;44.09;102038.06;10502063;28;20090;-57
2021/09/20 10:34:30;;;;;;;7.45;5.78;;;;;;;21.02;43.29;102023.44;10502140;28;20044;-58
2021/09/20 10:39:51;;;;;;;8.38;6.07;;;;;;;22.34;40.67;102032.75;10502417;28;20040;-58
2021/09/20 10:44:53;;;;;;;7.17;6.57;;;;;;;21.88;43.35;102026.03;10501663;28;20503;-58
2021/09/20 10:49:56;;;;;;;9.05;5.75;;;;;;;20.13;45.35;102027.94;10500224;28;20758;-58
2021/09/20 10:55:08;;;;;;;6.35;5.40;;;;;;;21.54;45.59;102028.09;10501627;28;20051;-59
2021/09/20 11:00:25;;;;;;;6.45;4.97;;;;;;;22.03;41.77;102038.03;10501094;28;20075;-58
2021/09/20 11:05:30;;;;;;;5.90;4.53;;;;;;;21.40;40.65;102024.75;10500961;28;20081;-58
2021/09/20 11:10:34;;;;;;;5.22;4.57;;;;;;;19.84;46.96;102042.53;10501150;28;20059;-59
2021/09/20 11:15:42;;;;;;;5.38;4.88;;;;;;;19.44;46.70;102032.25;10500300;28;20412;-58
2021/09/20 11:20:46;;;;;;;5.78;5.28;;;;;;;18.01;49.76;102042.56;10500150;28;20048;-58
2021/09/20 11:26:07;;;;;;;9.05;5.43;;;;;;;21.55;45.79;102032.44;10499036;28;20404;-58
2021/09/20 11:31:10;;;;;;;5.20;4.70;;;;;;;21.81;41.62;102025.72;10500103;28;20052;-57
2021/09/20 11:36:28;;;;;;;5.72;4.65;;;;;;;20.88;43.03;102029.91;10499520;28;20419;-58
2021/09/20 11:41:30;;;;;;;5.97;5.40;;;;;;;21.64;44.28;102037.84;10499262;28;20401;-58
2021/09/20 11:46:33;;;;;;;5.40;4.57;;;;;;;20.90;43.45;102035.13;10498200;28;20048;-58
2021/09/20 11:51:36;;;;;;;5.53;5.07;;;;;;;18.24;48.33;102054.22;10498955;28;20484;-59
2021/09/20 11:56:38;;;;;;;5.18;4.68;;;;;;;21.12;44.46;102048.34;10497691;28;20053;-59
2021/09/20 12:01:42;;;;;;;5.88;5.28;;;;;;;20.10;44.90;102060.91;10497786;28;20047;-58
2021/09/20 12:06:44;;;;;;;5.90;5.00;;;;;;;21.04;43.56;102058.78;10498753;28;20098;-59
2021/09/20 12:11:47;;;;;;;5.55;5.05;;;;;;;20.57;44.89;102063.44;10498576;28;20056;-58
2021/09/20 12:16:57;;;;;;;5.55;5.15;;;;;;;19.06;48.51;102069.63;10497101;28;20048;-59
2021/09/20 12:22:00;;;;;;;4.90;4.50;;;;;;;18.38;52.30;102079.75;10498109;28;20063;-58
2021/09/20 12:27:06;;;;;;;5.05;4.43;;;;;;;18.88;51.96;102077.97;10498237;28;20053;-58
2021/09/20 12:32:09;;;;;;;7.13;4.82;;;;;;;18.65;51.21;102092.00;10496463;28;20435;-59
2021/09/20 12:37:11;;;;;;;7.03;5.32;;;;;;;18.79;47.24;102083.06;10496806;28;20040;-59
2021/09/20 12:42:14;;;;;;;7.15;5.35;;;;;;;18.50;50.92;102099.25;10497301;28;20049;-58
2021/09/20 12:47:19;;;;;;;7.80;5.15;;;;;;;17.68;52.11;102103.94;10496577;28;20044;-58
2021/09/20 12:52:22;;;;;;;4.88;4.47;;;;;;;17.85;53.90;102114.25;10495742;28;20048;-59
2021/09/20 12:57:56;;;;;;;5.05;3.85;;;;;;;18.43;54.59;102120.03;10496532;28;20497;-58
2021/09/20 13:03:12;;;;;;;5.30;4.65;;;;;;;16.76;55.92;102130.09;10496441;28;20060;-58
2021/09/20 13:08:16;;;;;;;6.70;4.30;;;;;;;17.30;54.32;102134.66;10497420;28;20097;-58
2021/09/20 13:13:38;;;;;;;4.70;3.85;;;;;;;17.69;51.85;102126.84;10500005;28;20401;-58
2021/09/20 13:18:41;;;;;;;6.70;4.77;;;;;;;17.48;52.43;102127.28;10505484;28;20068;-58
2021/09/20 13:23:44;;;;;;;3.85;3.55;;;;;;;17.12;53.82;102128.72;10504817;28;20045;-58
2021/09/20 13:28:46;;;;;;;6.85;4.63;;;;;;;17.49;53.66;102131.63;10504590;28;20061;-58
2021/09/20 13:33:50;;;;;;;7.55;4.30;;;;;;;17.42;52.97;102152.38;10504673;28;20048;-58
2021/09/20 13:38:53;;;;;;;4.60;4.13;;;;;;;16.43;54.39;102149.72;10504125;28;20102;-58
2021/09/20 13:43:55;;;;;;;8.77;4.20;;;;;;;17.08;53.79;102151.91;10504296;28;20056;-58
2021/09/20 13:48:57;;;;;;;4.32;3.92;;;;;;;16.95;53.90;102150.97;10504147;28;20056;-58
2021/09/20 13:54:04;;;;;;;3.92;3.63;;;;;;;17.20;57.71;102149.41;10504240;28;20059;-58
2021/09/20 13:59:06;;;;;;;4.13;3.67;;;;;;;17.34;57.63;102151.16;10503361;28;20412;-59
2021/09/20 14:04:08;;;;;;;6.57;4.05;;;;;;;17.19;56.55;102148.56;10503378;28;20040;-59
2021/09/20 14:09:11;;;;;;;13.05;4.80;;;;;;;17.48;56.03;102156.41;10503052;28;20048;-59
2021/09/20 14:14:16;;;;;;;4.07;3.65;;;;;;;17.65;57.64;102150.00;10503046;28;20056;-59
2021/09/20 14:19:18;;;;;;;7.10;3.95;;;;;;;17.16;57.61;102158.50;10503216;28;20059;-58
2021/09/20 14:24:21;;;;;;;4.35;3.35;;;;;;;17.09;55.15;102158.03;10500661;28;20045;-58
2021/09/20 14:29:23;;;;;;;5.40;3.15;;;;;;;16.95;54.46;102166.00;10503173;28;20052;-58
2021/09/20 14:34:26;;;;;;;3.25;2.95;;;;;;;17.13;53.55;102167.50;10501962;28;20496;-58
2021/09/20 14:39:28;;;;;;;5.78;2.88;;;;;;;16.93;53.82;102168.75;10501744;28;20512;-58
2021/09/20 14:44:31;;;;;;;4.13;2.20;;;;;;;17.80;54.40;102164.91;10501673;28;20052;-58
2021/09/20 14:49:33;;;;;;;4.78;2.42;;;;;;;17.50;55.77;102159.81;10501420;28;20040;-58
2021/09/20 14:54:36;;;;;;;3.55;2.47;;;;;;;17.55;55.05;102164.78;10501366;28;20060;-58
2021/09/20 14:59:39;;;;;;;3.33;2.47;;;;;;;17.27;56.27;102166.59;10501146;28;20051;-58
2021/09/20 15:04:41;;;;;;;3.50;2.55;;;;;;;16.89;56.00;102161.94;10500753;28;20421;-58
2021/09/20 15:09:43;;;;;;;1.92;1.67;;;;;;;17.34;54.04;102178.47;10500786;28;20051;-58
2021/09/20 15:14:46;;;;;;;2.13;1.58;;;;;;;17.36;54.14;102175.75;10500639;28;20049;-58
2021/09/20 15:19:48;;;;;;;2.15;1.73;;;;;;;17.24;55.01;102178.22;10500401;28;20056;-58
2021/09/20 15:24:50;;;;;;;2.28;1.70;;;;;;;16.75;54.16;102193.66;10499103;28;20048;-58
2021/09/20 15:29:53;;;;;;;2.92;1.67;;;;;;;16.37;54.74;102195.00;10500106;28;20064;-58
2021/09/20 15:34:55;;;;;;;3.75;1.63;;;;;;;16.97;53.75;102201.13;10499649;28;20052;-58
2021/09/20 15:39:58;;;;;;;1.52;1.42;;;;;;;17.35;53.98;102200.50;10498772;28;20044;-58
2021/09/20 15:45:00;;;;;;;1.65;1.40;;;;;;;16.86;55.47;102210.59;10499255;28;20484;-58
2021/09/20 15:50:03;;;;;;;3.92;1.67;;;;;;;16.60;56.34;102206.84;10499171;28;20044;-58
2021/09/20 15:55:06;;;;;;;3.13;1.52;;;;;;;15.55;55.99;102215.53;10499648;28;20060;-58
2021/09/20 16:00:10;;;;;;;2.92;1.48;;;;;;;16.12;55.98;102208.81;10498846;28;20055;-58
2021/09/20 16:05:12;;;;;;;1.73;1.55;;;;;;;16.91;56.23;102202.34;10499026;28;20048;-58
2021/09/20 16:10:17;;;;;;;2.15;1.48;;;;;;;16.44;56.92;102220.16;10498584;28;20404;-58
2021/09/20 16:15:20;;;;;;;1.65;1.17;;;;;;;16.10;55.64;102231.84;10497175;28;20056;-58
2021/09/20 16:20:23;;;;;;;1.75;1.40;;;;;;;15.56;56.90;102234.88;10496926;28;20392;-58
2021/09/20 16:25:26;;;;;;;4.22;1.52;;;;;;;15.63;61.75;102243.28;10498203;28;20412;-58
2021/09/20 16:30:29;;;;;;;5.70;1.52;;;;;;;15.29;60.97;102245.16;10498515;28;20061;-58
2021/09/20 16:35:31;;;;;;;1.98;1.40;;;;;;;15.38;61.49;102247.28;10498013;28;20519;-58
2021/09/20 16:40:34;;;;;;;2.35;1.92;;;;;;;14.98;62.31;102245.03;10497840;28;20045;-58
2021/09/20 16:45:36;;;;;;;4.03;1.60;;;;;;;15.07;64.05;102256.84;10498194;28;20068;-59
2021/09/20 16:50:40;;;;;;;4.95;1.70;;;;;;;14.72;64.35;102271.88;10503455;28;20055;-59
2021/09/20 16:55:43;;;;;;;1.65;1.55;;;;;;;14.44;67.94;102273.25;10505146;28;20049;-59
2021/09/20 17:00:46;;;;;;;1.42;1.30;;;;;;;14.34;69.29;102275.50;10505716;28;20480;-59
2021/09/20 17:05:48;;;;;;;3.83;1.67;;;;;;;14.05;72.23;102279.56;10505853;28;20048;-59
2021/09/20 17:10:51;;;;;;;2.00;1.65;;;;;;;14.08;69.54;102290.78;10505479;28;20055;-58
2021/09/20 17:15:53;;;;;;;1.65;1.55;;;;;;;14.07;71.57;102304.03;10505137;28;20493;-59
2021/09/20 17:20:56;;;;;;;3.85;1.55;;;;;;;14.00;72.00;102306.09;10505184;28;20053;-59
2021/09/20 17:25:58;;;;;;;2.58;1.67;;;;;;;13.65;72.81;102311.28;10504750;28;20052;-58
2021/09/20 17:31:00;;;;;;;4.47;1.73;;;;;;;13.51;74.16;102332.94;10505271;28;20040;-58
2021/09/20 17:36:03;;;;;;;2.80;1.77;;;;;;;13.34;75.70;102340.75;10504128;28;20056;-59
2021/09/20 17:41:06;;;;;;;3.58;1.58;;;;;;;13.30;78.09;102339.16;10504562;28;20056;-58
2021/09/20 17:46:08;;;;;;;3.63;1.58;;;;;;;12.99;80.31;102348.38;10504090;28;20052;-58
2021/09/20 17:51:11;;;;;;;4.75;2.13;;;;;;;12.58;82.94;102350.97;10503509;28;20508;-57
2021/09/20 17:56:14;;;;;;;2.05;1.85;;;;;;;12.43;83.21;102363.78;10503900;28;20058;-58
2021/09/20 18:01:16;;;;;;;2.13;1.80;;;;;;;12.19;87.56;102365.63;10502297;28;20484;-58
2021/09/20 18:06:19;;;;;;;3.25;2.28;;;;;;;12.06;87.00;102380.16;10503260;28;20049;-57
2021/09/20 18:11:21;;;;;;;2.25;1.90;;;;;;;12.01;87.89;102380.31;10503040;28;20055;-57
2021/09/20 18:16:24;;;;;;;2.97;2.05;;;;;;;12.02;86.86;102384.66;10502720;28;20511;-58
2021/09/20 18:21:28;;;;;;;3.17;2.05;;;;;;;11.56;90.27;102388.94;10502975;28;20056;-58
2021/09/20 18:26:30;;;;;;;1.90;1.60;;;;;;;11.63;89.69;102402.72;10502409;28;20488;-58
2021/09/20 18:31:33;;;;;;;4.40;2.03;;;;;;;11.85;86.77;102401.03;10502263;28;20061;-58
2021/09/20 18:36:35;;;;;;;2.58;1.40;;;;;;;11.83;89.59;102415.94;10502252;28;20097;-58
2021/09/20 18:41:38;;;;;;;1.80;1.70;;;;;;;11.60;91.68;102423.78;10501825;28;20048;-58
2021/09/20 18:46:41;;;;;;;2.28;1.98;;;;;;;11.59;90.74;102437.84;10501847;28;20131;-57
2021/09/20 18:51:43;;;;;;;2.63;2.40;;;;;;;11.76;88.25;102438.09;10501422;28;20041;-58
2021/09/20 18:56:45;;;;;;;2.20;2.00;;;;;;;11.40;91.98;102453.34;10500350;28;20048;-58
2021/09/20 19:01:48;;;;;;;3.97;1.75;;;;;;;11.52;90.59;102448.53;10501445;28;20056;-57
2021/09/20 19:06:51;;;;;;;3.08;1.73;;;;;;;11.53;92.35;102454.63;10500026;28;20475;-57
2021/09/20 19:11:53;;;;;;;2.75;1.90;;;;;;;11.68;92.27;102463.75;10499152;28;20049;-57
2021/09/20 19:16:56;;;;;;;2.55;2.35;;;;;;;11.59;92.61;102458.84;10500408;28;20477;-58
2021/09/20 19:21:58;;;;;;;2.53;1.73;;;;;;;11.71;93.01;102472.34;10499042;28;20047;-58
2021/09/20 19:27:02;;;;;;;2.40;2.20;;;;;;;11.64;92.57;102478.72;10500929;28;20052;-58
2021/09/20 19:32:05;;;;;;;5.80;2.00;;;;;;;11.50;95.25;102473.13;10498666;28;20488;-58
2021/09/20 19:37:07;;;;;;;3.55;2.15;;;;;;;11.31;97.08;102478.13;10499516;28;20056;-58
2021/09/20 19:42:10;;;;;;;4.65;2.30;;;;;;;11.58;94.07;102478.09;10499341;28;20397;-57
2021/09/20 19:47:13;;;;;;;3.95;2.25;;;;;;;11.49;93.57;102476.66;10499343;28;20048;-58
2021/09/20 19:52:15;;;;;;;3.55;2.17;;;;;;;11.18;95.68;102485.56;10499304;28;20415;-59
2021/09/20 19:57:17;;;;;;;2.17;1.98;;;;;;;11.66;93.41;102486.56;10499089;28;20052;-57
2021/09/20 20:02:20;;;;;;;4.55;2.35;;;;;;;11.00;95.59;102475.69;10499852;28;20049;-59
2021/09/20 20:07:24;;;;;;;6.28;2.05;;;;;;;10.65;97.38;102481.09;10498666;28;20044;-57
2021/09/20 20:12:26;;;;;;;6.60;2.60;;;;;;;10.60;97.40;102472.53;10498704;28;20053;-59
2021/09/20 20:17:28;;;;;;;2.85;2.50;;;;;;;10.54;96.33;102478.84;10498620;28;20055;-58
2021/09/20 20:22:31;;;;;;;3.22;2.38;;;;;;;10.45;98.30;102486.09;10497513;28;20045;-58
2021/09/20 20:27:34;;;;;;;3.15;2.53;;;;;;;10.33;97.11;102495.19;10498192;28;20052;-58
2021/09/20 20:32:37;;;;;;;3.47;2.88;;;;;;;10.33;96.81;102490.78;10498066;28;20511;-57
2021/09/20 20:37:40;;;;;;;2.80;2.53;;;;;;;10.40;96.65;102510.66;10497954;28;20106;-58
2021/09/20 20:42:42;;;;;;;3.05;2.78;;;;;;;9.65;100.00;102508.34;10498277;28;20048;-57
2021/09/20 20:47:44;;;;;;;3.58;2.97;;;;;;;9.94;99.79;102521.56;10497746;28;20048;-57
2021/09/20 20:52:47;;;;;;;2.90;2.60;;;;;;;9.72;100.00;102516.88;10497579;28;20059;-58
2021/09/20 20:57:49;;;;;;;4.55;2.70;;;;;;;9.62;100.00;102507.56;10497539;28;20048;-58
2021/09/20 21:02:53;;;;;;;3.78;3.00;;;;;;;9.86;100.00;102521.75;10497791;28;20045;-57
2021/09/20 21:07:56;;;;;;;5.22;2.88;;;;;;;9.52;100.00;102534.84;10496681;28;20044;-58
2021/09/20 21:12:59;;;;;;;6.25;2.85;;;;;;;9.61;98.89;102540.69;10497295;28;20060;-57
2021/09/20 21:18:01;;;;;;;4.13;2.90;;;;;;;9.47;100.00;102554.13;10497481;28;20056;-58
2021/09/20 21:23:08;;;;;;;3.78;3.35;;;;;;;9.31;100.00;102557.97;10497186;28;20076;-56
2021/09/20 21:28:11;;;;;;;5.13;3.00;;;;;;;9.39;100.00;102560.44;10497607;28;20052;-57
2021/09/20 21:33:23;;;;;;;4.40;3.42;;;;;;;9.40;100.00;102572.63;10498044;28;20056;-58
2021/09/20 21:38:26;;;;;;;6.05;3.40;;;;;;;9.21;100.00;102574.78;10504887;28;20056;-57
2021/09/20 21:43:28;;;;;;;4.55;3.63;;;;;;;9.40;100.00;102588.31;10504636;28;20053;-58
2021/09/20 21:48:31;;;;;;;2.97;2.78;;;;;;;9.52;100.00;102592.38;10504147;28;20055;-57
2021/09/20 21:53:33;;;;;;;4.43;3.70;;;;;;;9.71;100.00;102595.38;10504590;28;20060;-56
2021/09/20 21:58:36;;;;;;;6.63;4.60;;;;;;;9.81;100.00;102595.09;10503759;28;20052;-58
2021/09/20 22:03:39;;;;;;;5.38;3.53;;;;;;;9.79;100.00;102602.13;10504119;28;20056;-57
2021/09/20 22:08:42;;;;;;;4.85;3.78;;;;;;;9.99;100.00;102601.63;10503254;28;20040;-57
2021/09/20 22:13:44;;;;;;;4.63;3.90;;;;;;;10.49;99.46;102608.19;10503706;28;20055;-54
2021/09/20 22:18:47;;;;;;;3.90;3.60;;;;;;;10.35;100.00;102609.41;10503089;28;20048;-55
2021/09/20 22:23:49;;;;;;;6.80;4.15;;;;;;;10.29;100.00;102611.31;10502742;28;20044;-58
2021/09/20 22:28:52;;;;;;;4.35;3.70;;;;;;;10.54;100.00;102604.53;10503399;28;20045;-56
2021/09/20 22:33:54;;;;;;;5.80;4.38;;;;;;;10.58;100.00;102597.44;10502508;28;20052;-58
2021/09/20 22:38:56;;;;;;;6.45;4.10;;;;;;;10.22;100.00;102608.88;10503050;28;20044;-56
2021/09/20 22:43:59;;;;;;;4.15;3.55;;;;;;;10.46;99.40;102608.28;10501967;28;20059;-57
2021/09/20 22:49:01;;;;;;;5.95;5.43;;;;;;;9.94;100.00;102597.44;10501289;28;20052;-57
2021/09/20 22:54:04;;;;;;;4.63;4.15;;;;;;;9.70;100.00;102598.88;10501685;28;20102;-58
2021/09/20 22:59:06;;;;;;;6.38;5.28;;;;;;;9.78;100.00;102608.25;10500179;28;20085;-57
2021/09/20 23:04:09;;;;;;;4.43;4.00;;;;;;;9.51;100.00;102615.03;10501143;28;20048;-58